createdAt,value
2023-06-15T00:00:09.261Z,99779.03
2023-06-15T00:04:13.790Z,99774.88
2023-06-15T00:08:15.629Z,99770.72
2023-06-15T00:12:17.701Z,99779.34
2023-06-15T00:16:19.967Z,99770.47
2023-06-15T00:20:45.145Z,99769.66
2023-06-15T00:24:46.847Z,99769.94
2023-06-15T00:28:48.698Z,99770.53
2023-06-15T00:32:52.422Z,99772.44
2023-06-15T00:36:54.254Z,99768.88
2023-06-15T00:40:55.974Z,99778.03
2023-06-15T00:44:57.903Z,99783.31
2023-06-15T00:48:59.937Z,99783.03
2023-06-15T00:53:04.726Z,99780.00
2023-06-15T00:57:07.799Z,99786.66
2023-06-15T01:01:09.575Z,99790.00
2023-06-15T01:05:11.755Z,99794.75
2023-06-15T01:09:13.640Z,99804.47
2023-06-15T01:13:21.328Z,99792.81
2023-06-15T01:17:25.353Z,99789.22
2023-06-15T01:21:31.504Z,99792.00
2023-06-15T01:25:43.548Z,99796.19
2023-06-15T01:29:46.218Z,99786.75
2023-06-15T01:33:52.134Z,99790.66
2023-06-15T01:37:53.955Z,99788.69
2023-06-15T01:41:56.618Z,99789.00
2023-06-15T01:46:01.010Z,99781.78
2023-06-15T01:50:03.761Z,99785.66
2023-06-15T01:54:05.638Z,99787.63
2023-06-15T01:58:07.701Z,99783.75
2023-06-15T02:02:09.516Z,99779.31
2023-06-15T02:06:11.553Z,99788.22
2023-06-15T02:10:13.692Z,99790.97
2023-06-15T02:14:19.066Z,99804.84
2023-06-15T02:18:23.171Z,99799.84
2023-06-15T02:22:25.006Z,99798.75
2023-06-15T02:26:27.230Z,99801.53
2023-06-15T02:30:29.036Z,99800.16
2023-06-15T02:34:31.922Z,99801.28
2023-06-15T02:38:33.626Z,99797.91
2023-06-15T02:42:36.400Z,99799.31
2023-06-15T02:46:38.127Z,99802.06
2023-06-15T02:50:39.873Z,99805.66
2023-06-15T02:54:48.468Z,99812.03
2023-06-15T02:58:56.126Z,99820.34
2023-06-15T03:03:23.676Z,99817.53
2023-06-15T03:07:27.188Z,99819.78
2023-06-15T03:11:54.186Z,99828.91
2023-06-15T03:16:08.351Z,99837.19
2023-06-15T03:20:12.374Z,99841.34
2023-06-15T03:24:17.832Z,99854.63
2023-06-15T03:28:24.651Z,99852.13
2023-06-15T03:32:29.521Z,99859.28
2023-06-15T03:36:33.184Z,99853.19
2023-06-15T03:40:38.564Z,99849.00
2023-06-15T03:44:41.162Z,99851.22
2023-06-15T03:48:43.280Z,99860.91
2023-06-15T03:52:45.349Z,99867.84
2023-06-15T03:56:47.199Z,99873.44
2023-06-15T04:00:49.145Z,99874.84
2023-06-15T04:04:56.299Z,99874.28
2023-06-15T04:08:59.389Z,99876.78
2023-06-15T04:13:01.600Z,99871.81
2023-06-15T04:17:04.660Z,99870.44
2023-06-15T04:21:06.632Z,99880.44
2023-06-15T04:25:09.443Z,99874.34
2023-06-15T04:29:14.116Z,99882.69
2023-06-15T04:33:18.260Z,99882.41
2023-06-15T04:37:20.576Z,99889.06
2023-06-15T04:41:24.247Z,99898.22
2023-06-15T04:45:30.980Z,99901.84
2023-06-15T04:49:33.407Z,99900.75
2023-06-15T04:53:37.367Z,99896.63
2023-06-15T04:57:39.451Z,99898.59
2023-06-15T05:01:41.180Z,99903.06
2023-06-15T05:05:52.738Z,99904.19
2023-06-15T05:09:54.591Z,99906.38
2023-06-15T05:13:59.594Z,99900.03
2023-06-15T05:18:01.533Z,99896.69
2023-06-15T05:22:04.163Z,99897.25
2023-06-15T05:26:25.040Z,99900.31
2023-06-15T05:30:31.867Z,99898.09
2023-06-15T05:34:34.321Z,99901.97
2023-06-15T05:38:36.384Z,99900.53
2023-06-15T05:42:38.640Z,99899.16
2023-06-15T05:46:40.720Z,99901.38
2023-06-15T05:50:43.761Z,99901.88
2023-06-15T05:54:46.723Z,99900.44
2023-06-15T05:58:50.093Z,99905.09
2023-06-15T06:02:51.879Z,99915.03
2023-06-15T06:07:06.575Z,99917.72
2023-06-15T06:11:11.144Z,99932.38
2023-06-15T06:15:19.094Z,99926.47
2023-06-15T06:19:22.199Z,99929.38
2023-06-15T06:23:25.265Z,99937.91
2023-06-15T06:27:27.546Z,99938.34
2023-06-15T06:31:29.655Z,99939.03
2023-06-15T06:35:31.778Z,99939.09
2023-06-15T06:39:34.278Z,99936.72
2023-06-15T06:43:37.042Z,99947.72
2023-06-15T06:47:40.839Z,99945.28
2023-06-15T06:51:43.528Z,99947.28
2023-06-15T06:55:46.800Z,99955.94
2023-06-15T06:59:49.313Z,99951.69
2023-06-15T07:03:52.348Z,99956.34
2023-06-15T07:07:55.280Z,99954.06
2023-06-15T07:11:56.961Z,99954.16
2023-06-15T07:15:59.478Z,99954.84
2023-06-15T07:20:01.315Z,99954.91
2023-06-15T07:24:04.180Z,99954.28
2023-06-15T07:28:06.590Z,99955.75
2023-06-15T07:32:09.282Z,99957.16
2023-06-15T07:36:13.290Z,99952.09
2023-06-15T07:40:17.162Z,99952.13
2023-06-15T07:44:20.615Z,99955.00
2023-06-15T07:48:22.603Z,99950.75
2023-06-15T07:52:26.175Z,99957.22
2023-06-15T07:56:29.901Z,99958.72
2023-06-15T08:00:31.812Z,99948.91
2023-06-15T08:04:36.458Z,99965.72
2023-06-15T08:08:40.245Z,99968.13
2023-06-15T08:12:44.299Z,99960.06
2023-06-15T08:16:47.092Z,99959.97
2023-06-15T08:20:51.291Z,99951.59
2023-06-15T08:24:53.148Z,99949.66
2023-06-15T08:28:59.219Z,99949.84
2023-06-15T08:33:06.530Z,99949.84
2023-06-15T08:37:11.319Z,99940.38
2023-06-15T08:41:15.315Z,99953.22
2023-06-15T08:45:17.723Z,99949.94
2023-06-15T08:49:19.556Z,99954.06
2023-06-15T08:53:23.828Z,99947.75
2023-06-15T08:57:25.702Z,99943.06
2023-06-15T09:01:30.790Z,99950.94
2023-06-15T09:05:34.335Z,99946.91
2023-06-15T09:09:36.083Z,99949.66
2023-06-15T09:13:39.088Z,99940.19
2023-06-15T09:17:42.619Z,99938.50
2023-06-15T09:21:53.110Z,99933.81
2023-06-15T09:25:55.909Z,99934.56
2023-06-15T09:30:04.190Z,99934.31
2023-06-15T09:34:09.304Z,99929.56
2023-06-15T09:38:11.208Z,99932.53
2023-06-15T09:42:13.304Z,99932.56
2023-06-15T09:46:22.303Z,99922.56
2023-06-15T09:50:32.994Z,99920.38
2023-06-15T09:54:40.295Z,99922.50
2023-06-15T09:58:42.144Z,99929.63
2023-06-15T10:02:46.360Z,99931.06
2023-06-15T10:06:51.998Z,99929.41
2023-06-15T10:10:59.941Z,99930.94
2023-06-15T10:15:22.135Z,99931.75
2023-06-15T10:19:26.976Z,99924.47
2023-06-15T10:23:42.096Z,99912.63
2023-06-15T10:27:47.308Z,99922.66
2023-06-15T10:32:02.985Z,99922.94
2023-06-15T10:36:13.265Z,99913.16
2023-06-15T10:40:27.791Z,99916.22
2023-06-15T10:44:33.459Z,99914.31
2023-06-15T10:48:40.299Z,99911.97
2023-06-15T10:52:42.183Z,99906.72
2023-06-15T10:56:51.302Z,99901.09
2023-06-15T11:01:05.596Z,99896.47
2023-06-15T11:05:10.379Z,99907.28
2023-06-15T11:09:16.329Z,99908.06
2023-06-15T11:13:26.374Z,99903.84
2023-06-15T11:17:31.388Z,99892.50
2023-06-15T11:21:34.320Z,99895.22
2023-06-15T11:25:37.664Z,99901.38
2023-06-15T11:29:44.714Z,99897.38
2023-06-15T11:33:48.715Z,99893.72
2023-06-15T11:37:51.835Z,99892.69
2023-06-15T11:41:58.166Z,99879.13
2023-06-15T11:46:02.323Z,99879.44
2023-06-15T11:50:05.454Z,99866.38
2023-06-15T11:54:11.810Z,99875.84
2023-06-15T11:58:15.448Z,99863.34
2023-06-15T12:02:18.121Z,99867.91
2023-06-15T12:06:23.880Z,99857.28
2023-06-15T12:10:27.341Z,99852.94
2023-06-15T12:14:29.129Z,99849.03
2023-06-15T12:18:31.146Z,99848.88
2023-06-15T12:22:43.371Z,99843.63
2023-06-15T12:26:52.342Z,99851.31
2023-06-15T12:31:03.376Z,99849.69
2023-06-15T12:35:06.407Z,99839.06
2023-06-15T12:39:12.656Z,99839.41
2023-06-15T12:43:17.959Z,99825.84
2023-06-15T12:47:19.685Z,99824.59
2023-06-15T12:51:23.230Z,99820.75
2023-06-15T12:55:27.393Z,99824.06
2023-06-15T12:59:29.347Z,99817.63
2023-06-15T13:03:32.523Z,99815.34
2023-06-15T13:07:34.725Z,99815.63
2023-06-15T13:11:39.355Z,99805.25
2023-06-15T13:15:42.333Z,99801.72
2023-06-15T13:19:45.313Z,99811.97
2023-06-15T13:23:48.122Z,99811.09
2023-06-15T13:27:50.379Z,99803.50
2023-06-15T13:31:52.890Z,99790.81
2023-06-15T13:35:56.894Z,99789.28
2023-06-15T13:40:01.065Z,99799.97
2023-06-15T13:44:03.226Z,99784.38
2023-06-15T13:48:06.496Z,99789.88
2023-06-15T13:52:08.490Z,99775.41
2023-06-15T13:56:10.306Z,99780.88
2023-06-15T14:00:12.669Z,99776.06
2023-06-15T14:04:14.983Z,99757.53
2023-06-15T14:08:17.824Z,99753.19
2023-06-15T14:12:19.613Z,99748.72
2023-06-15T14:16:21.739Z,99752.13
2023-06-15T14:20:24.414Z,99753.00
2023-06-15T14:24:26.201Z,99757.75
2023-06-15T14:28:27.969Z,99752.31
2023-06-15T14:32:30.381Z,99752.38
2023-06-15T14:36:32.851Z,99760.28
2023-06-15T14:40:34.756Z,99757.72
2023-06-15T14:44:36.618Z,99746.09
2023-06-15T14:48:38.387Z,99744.19
2023-06-15T14:52:42.086Z,99737.41
2023-06-15T14:56:44.392Z,99755.97
2023-06-15T15:00:46.139Z,99746.19
2023-06-15T15:04:48.729Z,99753.28
2023-06-15T15:08:53.399Z,99751.38
2023-06-15T15:12:55.727Z,99749.47
2023-06-15T15:16:57.639Z,99751.97
2023-06-15T15:21:01.221Z,99747.50
2023-06-15T15:25:04.751Z,99745.66
2023-06-15T15:29:07.411Z,99756.25
2023-06-15T15:33:09.735Z,99743.22
2023-06-15T15:37:11.994Z,99748.34
2023-06-15T15:41:15.401Z,99746.56
2023-06-15T15:45:17.143Z,99736.38
2023-06-15T15:49:21.233Z,99734.94
2023-06-15T15:53:23.054Z,99734.34
2023-06-15T15:57:25.419Z,99729.25
2023-06-15T16:01:28.726Z,99727.34
2023-06-15T16:05:30.692Z,99732.34
2023-06-15T16:09:33.389Z,99719.25
2023-06-15T16:13:36.877Z,99711.56
2023-06-15T16:17:41.745Z,99708.66
2023-06-15T16:21:43.781Z,99709.75
2023-06-15T16:25:46.455Z,99708.75
2023-06-15T16:29:49.967Z,99712.78
2023-06-15T16:33:52.449Z,99715.00
2023-06-15T16:37:54.392Z,99716.50
2023-06-15T16:41:56.413Z,99708.91
2023-06-15T16:45:58.397Z,99707.16
2023-06-15T16:50:01.057Z,99715.09
2023-06-15T16:54:02.918Z,99714.81
2023-06-15T16:58:06.230Z,99709.59
2023-06-15T17:02:10.459Z,99717.47
2023-06-15T17:06:12.247Z,99720.09
2023-06-15T17:10:16.052Z,99725.03
2023-06-15T17:14:18.364Z,99726.88
2023-06-15T17:18:21.510Z,99727.28
2023-06-15T17:22:24.742Z,99729.69
2023-06-15T17:26:26.857Z,99739.38
2023-06-15T17:30:28.722Z,99738.56
2023-06-15T17:34:32.400Z,99744.13
2023-06-15T17:38:36.436Z,99733.69
2023-06-15T17:42:39.307Z,99743.81
2023-06-15T17:46:41.253Z,99740.91
2023-06-15T17:50:43.036Z,99749.28
2023-06-15T17:54:46.951Z,99741.97
2023-06-15T17:58:50.407Z,99750.19
2023-06-15T18:02:53.549Z,99740.91
2023-06-15T18:06:55.446Z,99743.34
2023-06-15T18:10:58.438Z,99751.84
2023-06-15T18:15:00.165Z,99754.50
2023-06-15T18:19:08.663Z,99753.97
2023-06-15T18:23:10.938Z,99752.97
2023-06-15T18:27:13.017Z,99749.66
2023-06-15T18:31:14.720Z,99752.41
2023-06-15T18:35:16.645Z,99757.78
2023-06-15T18:39:19.061Z,99760.09
2023-06-15T18:43:21.783Z,99761.16
2023-06-15T18:47:26.580Z,99766.22
2023-06-15T18:51:28.780Z,99767.66
2023-06-15T18:55:31.229Z,99756.91
2023-06-15T18:59:33.589Z,99767.03
2023-06-15T19:03:35.413Z,99775.13
2023-06-15T19:07:38.046Z,99776.91
2023-06-15T19:11:42.465Z,99777.53
2023-06-15T19:15:47.266Z,99778.94
2023-06-15T19:19:49.009Z,99778.88
2023-06-15T19:23:51.790Z,99774.03
2023-06-15T19:27:53.838Z,99785.31
2023-06-15T19:31:55.788Z,99783.75
2023-06-15T19:35:57.552Z,99784.00
2023-06-15T19:40:00.496Z,99785.28
2023-06-15T19:44:02.382Z,99779.50
2023-06-15T19:48:04.772Z,99791.03
2023-06-15T19:52:08.957Z,99783.97
2023-06-15T19:56:12.216Z,99793.19
2023-06-15T20:00:15.960Z,99805.22
2023-06-15T20:04:19.455Z,99801.78
2023-06-15T20:08:21.467Z,99804.78
2023-06-15T20:12:23.324Z,99809.75
2023-06-15T20:16:26.470Z,99807.63
2023-06-15T20:20:28.215Z,99810.31
2023-06-15T20:24:30.926Z,99816.41
2023-06-15T20:28:36.887Z,99819.19
2023-06-15T20:32:38.851Z,99813.94
2023-06-15T20:36:43.821Z,99814.44
2023-06-15T20:40:46.461Z,99810.31
2023-06-15T20:48:52.944Z,99814.41
2023-06-15T20:53:05.350Z,99804.13
2023-06-15T20:57:07.558Z,99810.19
2023-06-15T21:01:09.499Z,99811.78
2023-06-15T21:05:11.966Z,99810.88
2023-06-15T21:09:13.760Z,99815.94
2023-06-15T21:13:16.538Z,99817.84
2023-06-15T21:17:18.496Z,99808.63
2023-06-15T21:21:20.789Z,99814.25
2023-06-15T21:25:24.238Z,99813.44
2023-06-15T21:29:26.051Z,99812.63
2023-06-15T21:33:27.820Z,99814.03
2023-06-15T21:37:32.499Z,99817.63
2023-06-15T21:41:35.081Z,99809.75
2023-06-15T21:45:36.806Z,99816.38
2023-06-15T21:49:38.484Z,99816.56
2023-06-15T21:53:40.179Z,99817.28
2023-06-15T21:57:42.176Z,99815.53
2023-06-15T22:01:43.937Z,99827.19
2023-06-15T22:05:45.947Z,99819.78
2023-06-15T22:09:47.790Z,99827.53
2023-06-15T22:13:50.251Z,99817.34
2023-06-15T22:17:57.809Z,99824.75
2023-06-15T22:21:59.791Z,99820.16
2023-06-15T22:26:02.477Z,99811.63
2023-06-15T22:30:04.575Z,99823.25
2023-06-15T22:34:07.034Z,99820.03
2023-06-15T22:38:08.826Z,99815.13
2023-06-15T22:42:11.348Z,99817.47
2023-06-15T22:46:13.082Z,99809.16
2023-06-15T22:50:15.802Z,99814.25
2023-06-15T22:54:17.709Z,99825.50
2023-06-15T22:58:20.730Z,99820.59
2023-06-15T23:02:23.821Z,99820.16
2023-06-15T23:06:30.509Z,99817.69
2023-06-15T23:10:32.292Z,99822.00
2023-06-15T23:14:37.291Z,99822.00
2023-06-15T23:18:39.433Z,99813.72
2023-06-15T23:22:42.334Z,99816.84
2023-06-15T23:26:44.703Z,99812.19
2023-06-15T23:30:47.041Z,99812.84
2023-06-15T23:34:48.732Z,99803.97
2023-06-15T23:38:50.648Z,99813.28
2023-06-15T23:42:52.394Z,99812.06
2023-06-15T23:46:54.245Z,99813.59
2023-06-15T23:50:55.953Z,99813.44
2023-06-15T23:54:57.647Z,99814.03
2023-06-15T23:58:59.388Z,99803.22
